Time;durP1;ratioP1;P1;durP2;ratioP2;P2;SDS_P1;SDS_P2;PMS_P1;PMS_P2;Temp;Humidity;BMP_temperature;BMP_pressure;BME280_temperature;BME280_humidity;BME280_pressure;Samples;Min_cycle;Max_cycle;Signal;HPM_P1;HPM_P2
2022/09/17 00:02:06;;;;;;;20.40;9.57;;;;;;;;;;5011847;28;20247;-81
2022/09/17 00:04:35;;;;;;;22.63;9.87;;;;;;;;;;5013041;28;20233;-81
2022/09/17 00:07:03;;;;;;;17.23;9.33;;;;;;;;;;5010292;28;20238;-81
2022/09/17 00:09:30;;;;;;;21.23;10.50;;;;;;;;;;5009125;28;20217;-82
2022/09/17 00:11:57;;;;;;;25.10;9.70;;;;;;;;;;5009898;28;20794;-82
2022/09/17 00:14:26;;;;;;;26.63;10.23;;;;;;;;;;5015788;28;20208;-81
2022/09/17 00:16:55;;;;;;;22.10;9.20;;;;;;;;;;5011159;28;20258;-79
2022/09/17 00:19:23;;;;;;;17.90;9.20;;;;;;;;;;5009465;28;20205;-81
2022/09/17 00:21:50;;;;;;;18.70;9.87;;;;;;;;;;5008933;28;20376;-82
2022/09/17 00:24:18;;;;;;;16.00;9.30;;;;;;;;;;5011291;28;20205;-81
2022/09/17 00:26:45;;;;;;;18.87;9.00;;;;;;;;;;5010519;28;20648;-81
2022/09/17 00:29:13;;;;;;;17.00;9.03;;;;;;;;;;5011736;28;20220;-81
2022/09/17 00:31:42;;;;;;;19.23;7.77;;;;;;;;;;5006193;28;20764;-81
2022/09/17 00:34:10;;;;;;;16.57;7.70;;;;;;;;;;5013614;28;20208;-81
2022/09/17 00:36:38;;;;;;;18.50;7.77;;;;;;;;;;5008342;28;20208;-81
2022/09/17 00:39:06;;;;;;;17.87;8.67;;;;;;;;;;5009224;28;20212;-81
2022/09/17 00:41:34;;;;;;;16.67;8.20;;;;;;;;;;5009221;28;20692;-81
2022/09/17 00:44:03;;;;;;;15.43;7.90;;;;;;;;;;5006821;28;20299;-81
2022/09/17 00:46:32;;;;;;;16.80;7.53;;;;;;;;;;5010972;28;20216;-81
2022/09/17 00:49:02;;;;;;;14.00;7.23;;;;;;;;;;5007781;28;20212;-81
2022/09/17 00:51:31;;;;;;;13.50;7.43;;;;;;;;;;5009006;28;20315;-81
2022/09/17 00:53:58;;;;;;;16.67;7.83;;;;;;;;;;5023087;28;20192;-81
2022/09/17 00:56:27;;;;;;;13.67;7.57;;;;;;;;;;5038093;28;20228;-81
2022/09/17 00:58:55;;;;;;;15.00;7.43;;;;;;;;;;5029675;28;20279;-81
2022/09/17 01:01:23;;;;;;;12.70;6.90;;;;;;;;;;5013946;28;20339;-81
2022/09/17 01:03:50;;;;;;;11.63;6.53;;;;;;;;;;5014076;28;20209;-81
2022/09/17 01:06:23;;;;;;;10.63;6.33;;;;;;;;;;5018146;28;20235;-81
2022/09/17 01:08:59;;;;;;;11.50;6.20;;;;;;;;;;5014766;28;20216;-81
2022/09/17 01:11:34;;;;;;;13.67;6.43;;;;;;;;;;5015520;28;20275;-80
2022/09/17 01:14:10;;;;;;;13.33;6.10;;;;;;;;;;5016176;28;20206;-81
2022/09/17 01:16:41;;;;;;;10.07;5.73;;;;;;;;;;5015865;28;20282;-81
2022/09/17 01:19:19;;;;;;;10.40;5.60;;;;;;;;;;5016641;28;20239;-81
2022/09/17 01:21:51;;;;;;;9.20;5.40;;;;;;;;;;5011279;28;20232;-81
2022/09/17 01:24:36;;;;;;;10.70;4.90;;;;;;;;;;5008872;28;20283;-80
2022/09/17 01:27:33;;;;;;;7.90;4.70;;;;;;;;;;5020683;28;20223;-80
2022/09/17 01:30:12;;;;;;;9.83;4.87;;;;;;;;;;5010975;28;20223;-81
2022/09/17 01:32:44;;;;;;;6.90;3.93;;;;;;;;;;5008596;28;20211;-80
2022/09/17 01:35:16;;;;;;;7.30;4.53;;;;;;;;;;5014492;28;20636;-81
2022/09/17 01:37:46;;;;;;;7.07;4.20;;;;;;;;;;5011452;28;20205;-80
2022/09/17 01:40:18;;;;;;;9.33;4.73;;;;;;;;;;5011113;28;20540;-80
2022/09/17 01:42:48;;;;;;;5.80;4.03;;;;;;;;;;5010938;28;20651;-80
2022/09/17 01:45:21;;;;;;;7.97;4.43;;;;;;;;;;5011357;28;20204;-80
2022/09/17 01:47:52;;;;;;;6.27;4.00;;;;;;;;;;5008466;28;20205;-80
2022/09/17 01:50:22;;;;;;;8.77;4.67;;;;;;;;;;5011363;28;20208;-80
2022/09/17 01:52:54;;;;;;;9.83;4.90;;;;;;;;;;5009682;28;20219;-80
2022/09/17 01:55:22;;;;;;;6.90;4.60;;;;;;;;;;5011591;28;20653;-80
2022/09/17 01:57:53;;;;;;;10.87;5.70;;;;;;;;;;5013782;28;20234;-80
2022/09/17 02:00:21;;;;;;;8.90;5.67;;;;;;;;;;5011314;28;20230;-80
2022/09/17 02:02:53;;;;;;;13.13;6.10;;;;;;;;;;5011502;28;20696;-80
2022/09/17 02:05:21;;;;;;;11.13;6.60;;;;;;;;;;5010542;28;20299;-81
2022/09/17 02:07:51;;;;;;;16.23;7.90;;;;;;;;;;5012341;28;20200;-81
2022/09/17 02:10:20;;;;;;;15.67;7.30;;;;;;;;;;5006550;28;20224;-82
2022/09/17 02:12:51;;;;;;;13.40;7.57;;;;;;;;;;5011456;28;20205;-82
2022/09/17 02:15:21;;;;;;;12.33;7.73;;;;;;;;;;5015042;28;20251;-82
2022/09/17 02:17:53;;;;;;;13.60;7.30;;;;;;;;;;5011863;28;20211;-82
2022/09/17 02:20:24;;;;;;;16.17;8.30;;;;;;;;;;5012818;28;20212;-82
2022/09/17 02:22:56;;;;;;;18.43;7.90;;;;;;;;;;5017584;28;20315;-82
2022/09/17 02:25:26;;;;;;;14.77;7.77;;;;;;;;;;5014959;28;20208;-84
2022/09/17 02:27:57;;;;;;;16.27;7.30;;;;;;;;;;5013616;28;20339;-82
2022/09/17 02:30:24;;;;;;;13.77;7.30;;;;;;;;;;5017006;28;20272;-82
2022/09/17 02:32:54;;;;;;;17.97;7.97;;;;;;;;;;5029872;28;20207;-82
2022/09/17 02:35:21;;;;;;;15.43;7.87;;;;;;;;;;5029512;28;20786;-82
2022/09/17 02:37:48;;;;;;;17.87;9.00;;;;;;;;;;5004805;28;20211;-82
2022/09/17 02:40:16;;;;;;;16.73;8.70;;;;;;;;;;5007405;28;20215;-82
2022/09/17 02:42:55;;;;;;;19.63;8.90;;;;;;;;;;5006058;28;20208;-82
2022/09/17 02:45:28;;;;;;;15.63;9.23;;;;;;;;;;5008236;28;20231;-82
2022/09/17 02:48:11;;;;;;;17.57;9.33;;;;;;;;;;5006301;28;20672;-82
2022/09/17 02:50:44;;;;;;;16.50;8.07;;;;;;;;;;5008296;28;20421;-82
2022/09/17 02:53:20;;;;;;;15.27;8.63;;;;;;;;;;5007320;28;20672;-82
2022/09/17 02:55:51;;;;;;;16.67;8.20;;;;;;;;;;5012102;28;20200;-82
2022/09/17 02:58:21;;;;;;;13.80;8.60;;;;;;;;;;5012123;28;20219;-82
2022/09/17 03:00:49;;;;;;;25.37;8.97;;;;;;;;;;5007986;28;20326;-82
2022/09/17 03:03:21;;;;;;;14.73;7.90;;;;;;;;;;5005653;28;20587;-82
2022/09/17 03:05:49;;;;;;;15.27;7.90;;;;;;;;;;5003371;28;20668;-81
2022/09/17 03:08:19;;;;;;;14.30;7.80;;;;;;;;;;5002415;28;20295;-82
2022/09/17 03:10:47;;;;;;;16.40;7.90;;;;;;;;;;5005101;28;20232;-82
2022/09/17 03:13:14;;;;;;;16.80;8.97;;;;;;;;;;5011048;28;20213;-82
2022/09/17 03:15:42;;;;;;;16.30;7.83;;;;;;;;;;5013642;28;20213;-82
2022/09/17 03:18:09;;;;;;;15.63;8.07;;;;;;;;;;5011879;28;20208;-82
2022/09/17 03:20:37;;;;;;;16.13;7.33;;;;;;;;;;5010309;28;20302;-82
2022/09/17 03:23:04;;;;;;;12.67;7.40;;;;;;;;;;5013632;28;20240;-82
2022/09/17 03:25:31;;;;;;;14.83;6.63;;;;;;;;;;5011719;28;20208;-82
2022/09/17 03:27:59;;;;;;;15.57;6.70;;;;;;;;;;5013890;28;20212;-81
2022/09/17 03:30:26;;;;;;;16.77;7.07;;;;;;;;;;5011068;28;20234;-82
2022/09/17 03:32:53;;;;;;;14.73;6.63;;;;;;;;;;5009428;28;20700;-82
2022/09/17 03:35:20;;;;;;;13.87;6.83;;;;;;;;;;5010576;28;20209;-82
2022/09/17 03:37:49;;;;;;;16.43;6.30;;;;;;;;;;5014306;28;20665;-82
2022/09/17 03:40:17;;;;;;;14.90;5.40;;;;;;;;;;5007767;28;20526;-82
2022/09/17 03:42:45;;;;;;;14.07;5.80;;;;;;;;;;5012029;28;20259;-82
2022/09/17 03:45:12;;;;;;;14.03;5.67;;;;;;;;;;5011673;28;20214;-82
2022/09/17 03:47:42;;;;;;;15.27;5.77;;;;;;;;;;5009280;28;20216;-82
2022/09/17 03:50:09;;;;;;;15.80;5.80;;;;;;;;;;5009123;28;20208;-82
2022/09/17 03:52:37;;;;;;;12.70;5.80;;;;;;;;;;5010025;28;20292;-82
2022/09/17 03:55:06;;;;;;;13.57;5.10;;;;;;;;;;5006001;28;20360;-82
2022/09/17 03:57:33;;;;;;;10.90;4.90;;;;;;;;;;5010640;28;20228;-82
2022/09/17 04:00:00;;;;;;;20.17;5.23;;;;;;;;;;5010433;28;20219;-82
2022/09/17 04:02:27;;;;;;;18.47;5.43;;;;;;;;;;5007430;28;20228;-82
2022/09/17 04:04:54;;;;;;;13.97;5.20;;;;;;;;;;5011081;28;20580;-82
2022/09/17 04:07:21;;;;;;;17.13;4.87;;;;;;;;;;5012755;28;20235;-82
2022/09/17 04:09:48;;;;;;;13.33;4.90;;;;;;;;;;5012069;28;20561;-82
2022/09/17 04:18:24;;;;;;;16.50;5.13;;;;;;;;;;5014171;28;20723;-83
2022/09/17 04:20:52;;;;;;;12.23;5.07;;;;;;;;;;5009893;28;20716;-82
2022/09/17 04:23:19;;;;;;;16.27;5.60;;;;;;;;;;5011439;28;20208;-83
2022/09/17 04:25:46;;;;;;;13.23;4.90;;;;;;;;;;5012529;28;20299;-82
2022/09/17 04:28:15;;;;;;;20.03;4.83;;;;;;;;;;5011285;28;20211;-83
2022/09/17 04:30:42;;;;;;;17.60;4.20;;;;;;;;;;5010337;28;20255;-82
2022/09/17 04:33:10;;;;;;;14.87;4.80;;;;;;;;;;5008573;28;20632;-83
2022/09/17 04:35:38;;;;;;;18.47;4.97;;;;;;;;;;5010101;28;20224;-82
2022/09/17 04:38:09;;;;;;;15.40;4.30;;;;;;;;;;5010235;28;20268;-82
2022/09/17 04:40:36;;;;;;;12.23;4.87;;;;;;;;;;5010526;28;20683;-82
2022/09/17 04:43:08;;;;;;;13.00;4.27;;;;;;;;;;5011724;28;20228;-82
2022/09/17 04:45:35;;;;;;;20.37;5.03;;;;;;;;;;5012486;28;20243;-82
2022/09/17 04:48:02;;;;;;;11.50;4.17;;;;;;;;;;5009895;28;20791;-82
2022/09/17 04:50:29;;;;;;;23.90;4.10;;;;;;;;;;5009444;28;20239;-82
2022/09/17 04:52:58;;;;;;;14.40;4.80;;;;;;;;;;5009387;28;20204;-83
2022/09/17 04:55:26;;;;;;;14.00;4.43;;;;;;;;;;5009017;28;20645;-82
2022/09/17 04:57:54;;;;;;;16.03;4.70;;;;;;;;;;5014161;28;20207;-82
2022/09/17 05:00:21;;;;;;;19.80;5.33;;;;;;;;;;5008085;28;20213;-82
2022/09/17 05:02:53;;;;;;;17.10;5.43;;;;;;;;;;5038255;23;20231;-83
2022/09/17 05:05:20;;;;;;;14.40;5.67;;;;;;;;;;5042957;28;20258;-81
2022/09/17 05:07:48;;;;;;;14.60;5.20;;;;;;;;;;5041606;28;20207;-81
2022/09/17 05:10:18;;;;;;;18.00;5.10;;;;;;;;;;5042553;28;20223;-83
2022/09/17 05:12:48;;;;;;;18.87;5.00;;;;;;;;;;5043641;28;20251;-81
2022/09/17 05:15:16;;;;;;;17.50;6.03;;;;;;;;;;5045179;28;20215;-81
2022/09/17 05:17:43;;;;;;;17.77;5.30;;;;;;;;;;5040657;28;20211;-83
2022/09/17 05:20:11;;;;;;;22.03;6.00;;;;;;;;;;5040836;28;20257;-80
2022/09/17 05:22:41;;;;;;;17.13;6.27;;;;;;;;;;5040326;28;20228;-81
2022/09/17 05:25:09;;;;;;;22.60;6.40;;;;;;;;;;5039733;28;20708;-81
2022/09/17 05:27:37;;;;;;;13.90;5.50;;;;;;;;;;5039407;28;20664;-82
2022/09/17 05:30:05;;;;;;;18.57;5.80;;;;;;;;;;5048465;28;20214;-80
2022/09/17 05:32:34;;;;;;;22.97;7.00;;;;;;;;;;5040445;28;20224;-81
2022/09/17 05:35:03;;;;;;;16.90;6.10;;;;;;;;;;5037742;28;20219;-81
2022/09/17 05:37:35;;;;;;;19.90;5.97;;;;;;;;;;5034370;28;20204;-81
2022/09/17 05:40:07;;;;;;;26.67;6.37;;;;;;;;;;5031419;28;20211;-82
2022/09/17 05:42:34;;;;;;;21.97;6.77;;;;;;;;;;5040453;28;20223;-79
2022/09/17 05:45:04;;;;;;;21.97;7.47;;;;;;;;;;5041885;28;20207;-82
2022/09/17 05:47:34;;;;;;;20.27;6.93;;;;;;;;;;5034777;28;20216;-83
2022/09/17 05:50:01;;;;;;;18.87;6.40;;;;;;;;;;5035087;28;20239;-80
2022/09/17 05:52:28;;;;;;;21.60;6.90;;;;;;;;;;5033794;28;20682;-82
2022/09/17 05:54:56;;;;;;;20.40;7.50;;;;;;;;;;5038158;28;20230;-80
2022/09/17 05:57:25;;;;;;;18.63;7.57;;;;;;;;;;5036159;28;20215;-80
2022/09/17 06:00:01;;;;;;;26.07;7.53;;;;;;;;;;5037568;28;20262;-81
2022/09/17 06:02:31;;;;;;;21.33;7.60;;;;;;;;;;5038242;28;20285;-82
2022/09/17 06:05:00;;;;;;;22.33;8.00;;;;;;;;;;5036206;28;20229;-82
2022/09/17 06:07:28;;;;;;;22.33;7.93;;;;;;;;;;5032384;28;20827;-82
2022/09/17 06:09:55;;;;;;;22.97;7.97;;;;;;;;;;5035400;28;20730;-79
2022/09/17 06:12:22;;;;;;;19.50;7.90;;;;;;;;;;5038580;28;20219;-81
2022/09/17 06:14:50;;;;;;;26.33;7.20;;;;;;;;;;5041214;28;20203;-81
2022/09/17 06:17:17;;;;;;;17.93;7.30;;;;;;;;;;5038083;28;20243;-80
2022/09/17 06:19:46;;;;;;;15.77;6.67;;;;;;;;;;5039017;28;20249;-80
2022/09/17 06:22:13;;;;;;;16.53;6.80;;;;;;;;;;5038134;28;20231;-80
2022/09/17 06:24:45;;;;;;;17.53;7.17;;;;;;;;;;5035960;28;20207;-81
2022/09/17 06:27:19;;;;;;;20.77;7.37;;;;;;;;;;5039321;28;20211;-80
2022/09/17 06:29:46;;;;;;;18.87;7.13;;;;;;;;;;5040731;28;20207;-83
2022/09/17 06:32:15;;;;;;;19.63;6.73;;;;;;;;;;5044173;28;20563;-81
2022/09/17 06:34:43;;;;;;;22.53;7.57;;;;;;;;;;5041620;28;20223;-81
2022/09/17 06:37:22;;;;;;;26.30;7.47;;;;;;;;;;5047547;28;20226;-82
2022/09/17 06:39:58;;;;;;;17.17;6.20;;;;;;;;;;5045654;28;20236;-81
2022/09/17 06:42:47;;;;;;;15.83;6.07;;;;;;;;;;5045343;28;20226;-81
2022/09/17 06:45:15;;;;;;;22.43;7.00;;;;;;;;;;5044703;28;20191;-81
2022/09/17 06:47:42;;;;;;;18.60;6.97;;;;;;;;;;5045197;28;20219;-81
2022/09/17 06:50:10;;;;;;;25.03;7.57;;;;;;;;;;5038983;28;20263;-79
2022/09/17 06:52:38;;;;;;;15.33;6.03;;;;;;;;;;5036615;23;20235;-78
2022/09/17 06:55:06;;;;;;;15.67;6.77;;;;;;;;;;5019185;28;20255;-78
2022/09/17 06:57:33;;;;;;;21.53;6.60;;;;;;;;;;5028022;28;20318;-78
2022/09/17 07:00:01;;;;;;;13.17;6.50;;;;;;;;;;5024140;28;20207;-77
2022/09/17 07:02:28;;;;;;;18.70;6.80;;;;;;;;;;5024702;28;20634;-78
2022/09/17 07:04:55;;;;;;;20.40;6.60;;;;;;;;;;5027623;28;20425;-76
2022/09/17 07:07:23;;;;;;;18.20;6.10;;;;;;;;;;5027227;28;20220;-77
2022/09/17 07:09:52;;;;;;;20.33;6.40;;;;;;;;;;5025877;28;20286;-78
2022/09/17 07:12:19;;;;;;;21.07;6.27;;;;;;;;;;5029836;28;20208;-79
2022/09/17 07:14:47;;;;;;;19.87;6.10;;;;;;;;;;5023979;28;20204;-78
2022/09/17 07:17:14;;;;;;;26.80;6.87;;;;;;;;;;5023564;28;20237;-77
2022/09/17 07:19:42;;;;;;;13.83;6.00;;;;;;;;;;5022778;28;20194;-78
2022/09/17 07:22:09;;;;;;;17.50;6.13;;;;;;;;;;5025116;28;20224;-79
2022/09/17 07:24:37;;;;;;;15.40;5.17;;;;;;;;;;5023595;28;20200;-79
2022/09/17 07:27:06;;;;;;;14.37;5.37;;;;;;;;;;5025747;28;20319;-81
2022/09/17 07:29:33;;;;;;;14.23;4.93;;;;;;;;;;5025976;28;20265;-80
2022/09/17 07:32:00;;;;;;;12.30;5.03;;;;;;;;;;5028816;28;20200;-77
2022/09/17 07:34:28;;;;;;;19.33;5.23;;;;;;;;;;5029071;28;20210;-76
2022/09/17 07:36:55;;;;;;;17.90;4.53;;;;;;;;;;5028487;28;20208;-77
2022/09/17 07:39:24;;;;;;;14.97;4.37;;;;;;;;;;5025237;28;20211;-78
2022/09/17 07:41:52;;;;;;;17.73;5.10;;;;;;;;;;5025015;28;20205;-77
2022/09/17 07:44:21;;;;;;;12.60;4.63;;;;;;;;;;5026261;28;20253;-76
2022/09/17 07:46:48;;;;;;;11.90;4.20;;;;;;;;;;5028108;28;20243;-79
2022/09/17 07:49:16;;;;;;;17.00;4.60;;;;;;;;;;5025718;28;20207;-78
2022/09/17 07:51:43;;;;;;;12.37;4.40;;;;;;;;;;5022426;28;20204;-78
2022/09/17 07:54:10;;;;;;;14.33;4.43;;;;;;;;;;5024528;28;20205;-79
2022/09/17 07:56:38;;;;;;;19.73;4.33;;;;;;;;;;5030424;28;20218;-78
2022/09/17 07:59:05;;;;;;;11.73;3.80;;;;;;;;;;5024291;28;20216;-77
2022/09/17 08:01:35;;;;;;;11.60;2.80;;;;;;;;;;5027297;28;20657;-79
2022/09/17 08:04:03;;;;;;;12.67;3.63;;;;;;;;;;5025409;28;20244;-79
2022/09/17 08:06:30;;;;;;;14.13;3.20;;;;;;;;;;5018261;28;20712;-78
2022/09/17 08:08:58;;;;;;;8.17;2.60;;;;;;;;;;5028269;28;20879;-78
2022/09/17 08:11:27;;;;;;;9.73;2.80;;;;;;;;;;5024475;28;20216;-79
2022/09/17 08:13:55;;;;;;;11.90;3.00;;;;;;;;;;5025663;28;20230;-78
2022/09/17 08:16:23;;;;;;;8.77;2.57;;;;;;;;;;5020309;28;20752;-79
2022/09/17 08:18:55;;;;;;;13.60;2.70;;;;;;;;;;5022327;28;20259;-77
2022/09/17 08:21:22;;;;;;;9.20;2.73;;;;;;;;;;5018324;28;20216;-77
2022/09/17 08:23:49;;;;;;;9.43;2.30;;;;;;;;;;5028578;28;20238;-78
2022/09/17 08:26:18;;;;;;;7.30;2.40;;;;;;;;;;5029348;28;20204;-78
2022/09/17 08:28:46;;;;;;;12.67;2.07;;;;;;;;;;5029175;28;20697;-78
2022/09/17 08:31:14;;;;;;;9.30;2.13;;;;;;;;;;5027138;28;20250;-77
2022/09/17 08:33:42;;;;;;;7.93;2.23;;;;;;;;;;5032547;28;20200;-78
2022/09/17 08:36:11;;;;;;;8.07;2.90;;;;;;;;;;5027822;28;20212;-77
2022/09/17 08:38:39;;;;;;;11.30;2.10;;;;;;;;;;5029194;28;20221;-77
2022/09/17 08:41:12;;;;;;;11.90;2.40;;;;;;;;;;5028965;28;20208;-78
2022/09/17 08:43:42;;;;;;;7.10;2.43;;;;;;;;;;5012498;28;20224;-83
2022/09/17 08:46:10;;;;;;;7.73;2.30;;;;;;;;;;5006830;28;20606;-78
2022/09/17 08:48:40;;;;;;;5.77;2.00;;;;;;;;;;5003609;28;21399;-80
2022/09/17 08:51:11;;;;;;;11.53;2.40;;;;;;;;;;5018519;28;20568;-77
2022/09/17 08:53:57;;;;;;;7.80;1.80;;;;;;;;;;5028157;28;20202;-78
2022/09/17 08:56:26;;;;;;;8.33;2.43;;;;;;;;;;5027164;28;20687;-78
2022/09/17 08:58:58;;;;;;;7.53;2.10;;;;;;;;;;5027659;28;20404;-79
2022/09/17 09:01:32;;;;;;;9.43;2.80;;;;;;;;;;5028435;28;20803;-78
2022/09/17 09:04:08;;;;;;;5.70;2.87;;;;;;;;;;5024204;28;20723;-78
2022/09/17 09:06:40;;;;;;;10.73;2.47;;;;;;;;;;5025308;28;20206;-78
2022/09/17 09:09:12;;;;;;;12.13;2.73;;;;;;;;;;5027732;28;20203;-79
2022/09/17 09:11:41;;;;;;;9.67;2.60;;;;;;;;;;5025752;28;20208;-78
2022/09/17 09:14:14;;;;;;;9.00;2.17;;;;;;;;;;5021858;28;20208;-77
2022/09/17 09:16:43;;;;;;;8.73;2.30;;;;;;;;;;5020517;28;20216;-78
2022/09/17 09:19:19;;;;;;;6.70;2.40;;;;;;;;;;5023908;28;20202;-76
2022/09/17 09:21:53;;;;;;;6.67;1.80;;;;;;;;;;5020508;28;20204;-78
2022/09/17 09:24:25;;;;;;;7.97;1.80;;;;;;;;;;5025160;28;20232;-77
2022/09/17 09:26:57;;;;;;;6.73;1.83;;;;;;;;;;5021224;28;20221;-78
2022/09/17 09:29:32;;;;;;;5.23;1.83;;;;;;;;;;5016670;28;20216;-77
2022/09/17 09:32:13;;;;;;;8.77;1.70;;;;;;;;;;5019592;28;20308;-79
2022/09/17 09:34:40;;;;;;;8.97;1.80;;;;;;;;;;5022118;28;20286;-79
2022/09/17 09:37:13;;;;;;;7.33;1.83;;;;;;;;;;5018336;28;20291;-79
2022/09/17 09:39:42;;;;;;;11.23;1.73;;;;;;;;;;5018228;28;20216;-79
2022/09/17 09:42:12;;;;;;;5.60;1.30;;;;;;;;;;5019072;28;20216;-78
2022/09/17 09:44:40;;;;;;;6.67;1.33;;;;;;;;;;5019882;28;20259;-77
2022/09/17 09:47:14;;;;;;;8.43;1.50;;;;;;;;;;5020754;28;20266;-78
2022/09/17 09:49:49;;;;;;;5.83;1.90;;;;;;;;;;5027904;28;20207;-78
2022/09/17 09:52:21;;;;;;;4.93;1.20;;;;;;;;;;5028837;28;20222;-77
2022/09/17 09:54:56;;;;;;;5.50;1.63;;;;;;;;;;5033639;28;20227;-78
2022/09/17 09:57:26;;;;;;;7.17;2.03;;;;;;;;;;5032896;28;20276;-78
2022/09/17 10:00:15;;;;;;;8.77;1.40;;;;;;;;;;5027924;28;20211;-76
2022/09/17 10:02:42;;;;;;;9.27;1.50;;;;;;;;;;5029810;28;20203;-77
2022/09/17 10:05:10;;;;;;;7.67;1.50;;;;;;;;;;5033722;28;20334;-77
2022/09/17 10:07:44;;;;;;;8.47;1.30;;;;;;;;;;5030518;28;20313;-77
2022/09/17 10:10:13;;;;;;;8.60;1.33;;;;;;;;;;5028498;28;20275;-76
2022/09/17 10:12:40;;;;;;;9.13;1.37;;;;;;;;;;5028714;28;20552;-78
2022/09/17 10:15:23;;;;;;;4.43;1.10;;;;;;;;;;5031538;28;20207;-77
2022/09/17 10:17:51;;;;;;;7.43;1.40;;;;;;;;;;5030964;28;20232;-78
2022/09/17 10:20:18;;;;;;;2.27;1.00;;;;;;;;;;5035838;28;20230;-77
2022/09/17 10:22:46;;;;;;;8.43;1.30;;;;;;;;;;5031292;28;20228;-76
2022/09/17 10:25:28;;;;;;;7.33;1.10;;;;;;;;;;5029088;28;20211;-78
2022/09/17 10:27:58;;;;;;;7.33;1.20;;;;;;;;;;5032296;28;20301;-77
2022/09/17 10:30:28;;;;;;;5.63;1.13;;;;;;;;;;5031705;28;20208;-78
2022/09/17 10:33:11;;;;;;;6.30;1.10;;;;;;;;;;5025986;28;20203;-78
2022/09/17 10:35:38;;;;;;;7.80;1.40;;;;;;;;;;5031612;28;20232;-77
2022/09/17 10:38:06;;;;;;;4.30;1.00;;;;;;;;;;5028924;28;20259;-78
2022/09/17 10:40:33;;;;;;;5.13;0.97;;;;;;;;;;5026476;28;20812;-77
2022/09/17 10:43:23;;;;;;;3.80;1.10;;;;;;;;;;5030054;28;20227;-78
2022/09/17 10:45:58;;;;;;;6.00;1.10;;;;;;;;;;5029022;28;20616;-77
2022/09/17 10:48:28;;;;;;;7.73;1.10;;;;;;;;;;5032188;28;20219;-78
2022/09/17 10:50:57;;;;;;;5.87;1.20;;;;;;;;;;5031558;28;20220;-79
2022/09/17 10:53:25;;;;;;;5.53;0.90;;;;;;;;;;5022298;28;20315;-79
2022/09/17 10:55:55;;;;;;;3.50;0.77;;;;;;;;;;5028590;28;20638;-79
2022/09/17 10:58:31;;;;;;;4.07;0.80;;;;;;;;;;5026016;28;20266;-80
2022/09/17 11:01:09;;;;;;;7.97;2.00;;;;;;;;;;5029003;28;20203;-81
2022/09/17 11:03:49;;;;;;;7.40;1.20;;;;;;;;;;5028025;28;20235;-80
2022/09/17 11:06:43;;;;;;;3.97;1.00;;;;;;;;;;5029806;28;20674;-78
2022/09/17 11:09:16;;;;;;;8.47;1.10;;;;;;;;;;5026102;28;20203;-78
2022/09/17 11:11:49;;;;;;;4.87;0.90;;;;;;;;;;5015158;28;20878;-77
2022/09/17 11:14:25;;;;;;;5.73;1.27;;;;;;;;;;5014196;28;20204;-79
2022/09/17 11:16:58;;;;;;;8.00;0.90;;;;;;;;;;5020894;28;20261;-78
2022/09/17 11:19:28;;;;;;;5.27;0.80;;;;;;;;;;5024260;28;20207;-77
2022/09/17 11:21:57;;;;;;;4.67;0.93;;;;;;;;;;5019523;28;21082;-78
2022/09/17 11:24:47;;;;;;;2.63;1.00;;;;;;;;;;5008591;28;20227;-77
2022/09/17 11:27:19;;;;;;;3.37;0.90;;;;;;;;;;5003081;28;20231;-77
2022/09/17 11:30:02;;;;;;;2.97;0.80;;;;;;;;;;5015218;28;20196;-78
2022/09/17 11:32:38;;;;;;;6.53;1.40;;;;;;;;;;5017374;28;20228;-78
2022/09/17 11:35:09;;;;;;;3.40;1.10;;;;;;;;;;5020462;28;20217;-78
2022/09/17 11:37:38;;;;;;;4.93;1.10;;;;;;;;;;5021383;28;20235;-76
2022/09/17 11:40:12;;;;;;;3.77;0.93;;;;;;;;;;5021832;28;20212;-78
2022/09/17 11:42:44;;;;;;;5.23;1.20;;;;;;;;;;5014548;28;20508;-77
2022/09/17 11:45:15;;;;;;;5.20;1.03;;;;;;;;;;5016070;28;20230;-77
2022/09/17 11:47:46;;;;;;;3.33;0.80;;;;;;;;;;5012970;28;20223;-77
2022/09/17 11:50:18;;;;;;;4.80;0.90;;;;;;;;;;5016424;28;20202;-78
2022/09/17 11:52:46;;;;;;;3.63;0.57;;;;;;;;;;5016658;28;20203;-78
2022/09/17 11:55:18;;;;;;;4.07;0.77;;;;;;;;;;5013735;28;20287;-77
2022/09/17 11:57:46;;;;;;;1.77;0.33;;;;;;;;;;5016173;28;20230;-79
2022/09/17 12:00:17;;;;;;;1.47;0.50;;;;;;;;;;5018132;28;20204;-77
2022/09/17 12:02:48;;;;;;;3.60;0.73;;;;;;;;;;5023953;28;20557;-77
2022/09/17 12:05:19;;;;;;;4.67;1.00;;;;;;;;;;5026525;28;20223;-77
2022/09/17 12:07:49;;;;;;;3.07;0.90;;;;;;;;;;5024418;28;20701;-77
2022/09/17 12:10:25;;;;;;;4.63;0.97;;;;;;;;;;5025895;28;20200;-77
2022/09/17 12:12:54;;;;;;;4.40;1.00;;;;;;;;;;5025692;28;20207;-78
2022/09/17 12:15:25;;;;;;;2.43;0.90;;;;;;;;;;5025019;28;20210;-78
2022/09/17 12:17:56;;;;;;;3.97;1.00;;;;;;;;;;5024517;28;20747;-78
2022/09/17 12:20:27;;;;;;;6.80;1.10;;;;;;;;;;5027315;28;20282;-77
2022/09/17 12:22:54;;;;;;;4.53;1.03;;;;;;;;;;5026598;28;20204;-78
2022/09/17 12:25:22;;;;;;;4.63;1.10;;;;;;;;;;5026261;28;22051;-77
2022/09/17 12:27:52;;;;;;;4.00;1.00;;;;;;;;;;5023556;28;20223;-77
2022/09/17 12:30:21;;;;;;;4.90;1.13;;;;;;;;;;5025553;28;20206;-77
2022/09/17 12:33:02;;;;;;;5.50;1.00;;;;;;;;;;5025821;28;20200;-78
2022/09/17 12:35:41;;;;;;;4.40;1.07;;;;;;;;;;5025807;28;20574;-77
2022/09/17 12:38:15;;;;;;;4.77;1.20;;;;;;;;;;5023638;28;20314;-78
2022/09/17 12:40:46;;;;;;;5.07;0.80;;;;;;;;;;5025733;28;20273;-77
2022/09/17 12:43:27;;;;;;;2.83;0.80;;;;;;;;;;5026245;28;20266;-79
2022/09/17 12:46:02;;;;;;;4.43;1.03;;;;;;;;;;5031115;23;22164;-79
2022/09/17 12:48:40;;;;;;;5.77;1.07;;;;;;;;;;5024154;28;20265;-78
2022/09/17 12:51:16;;;;;;;5.57;0.90;;;;;;;;;;5014742;28;21495;-80
2022/09/17 12:53:47;;;;;;;5.17;0.93;;;;;;;;;;5020691;28;20196;-79
2022/09/17 12:56:23;;;;;;;2.90;0.80;;;;;;;;;;5017949;28;20204;-78
2022/09/17 12:59:01;;;;;;;6.50;0.90;;;;;;;;;;5020565;28;20223;-79
2022/09/17 13:01:31;;;;;;;10.30;1.40;;;;;;;;;;5022111;28;20266;-78
2022/09/17 13:04:03;;;;;;;3.77;0.90;;;;;;;;;;5024635;28;20331;-78
2022/09/17 13:06:39;;;;;;;3.83;1.10;;;;;;;;;;5030364;28;20240;-78
2022/09/17 13:09:21;;;;;;;4.33;1.27;;;;;;;;;;5021506;28;21297;-78
2022/09/17 13:11:56;;;;;;;2.73;0.80;;;;;;;;;;5011423;28;20204;-79
2022/09/17 13:14:27;;;;;;;3.73;0.67;;;;;;;;;;5026487;28;20217;-78
2022/09/17 13:16:57;;;;;;;3.67;0.77;;;;;;;;;;5022148;28;20668;-81
2022/09/17 13:19:31;;;;;;;1.67;0.50;;;;;;;;;;5030065;28;20212;-79
2022/09/17 13:22:01;;;;;;;2.37;0.70;;;;;;;;;;5026477;28;20195;-79
2022/09/17 13:24:30;;;;;;;4.97;0.80;;;;;;;;;;5025569;28;20232;-78
2022/09/17 13:26:57;;;;;;;5.93;0.83;;;;;;;;;;5024887;28;20208;-78
2022/09/17 13:29:43;;;;;;;2.00;0.50;;;;;;;;;;5025692;28;20226;-79
2022/09/17 13:32:10;;;;;;;3.50;0.60;;;;;;;;;;5027040;28;20684;-76
2022/09/17 13:34:42;;;;;;;4.60;0.60;;;;;;;;;;5024939;28;20533;-80
2022/09/17 13:37:18;;;;;;;2.10;0.60;;;;;;;;;;5023680;28;20330;-79
2022/09/17 13:39:46;;;;;;;3.43;0.70;;;;;;;;;;5022782;28;20230;-80
2022/09/17 13:42:17;;;;;;;2.20;0.60;;;;;;;;;;5025022;28;20974;-79
2022/09/17 13:44:46;;;;;;;0.93;0.40;;;;;;;;;;5018486;28;20235;-78
2022/09/17 13:47:22;;;;;;;3.77;0.60;;;;;;;;;;5024368;28;20649;-80
2022/09/17 13:49:53;;;;;;;1.87;0.40;;;;;;;;;;5015218;28;20208;-78
2022/09/17 13:52:29;;;;;;;2.13;0.60;;;;;;;;;;5013800;28;20295;-78
2022/09/17 13:54:57;;;;;;;2.03;0.60;;;;;;;;;;5013773;28;20315;-78
2022/09/17 13:57:24;;;;;;;4.53;0.50;;;;;;;;;;5018809;28;20274;-78
2022/09/17 13:59:56;;;;;;;1.60;0.50;;;;;;;;;;5022792;28;20291;-78
2022/09/17 14:02:34;;;;;;;0.97;0.40;;;;;;;;;;5020244;28;20203;-78
2022/09/17 14:05:22;;;;;;;0.83;0.50;;;;;;;;;;5024291;28;20231;-78
2022/09/17 14:07:51;;;;;;;1.20;0.50;;;;;;;;;;5020321;28;20215;-79
2022/09/17 14:10:37;;;;;;;3.07;0.50;;;;;;;;;;5016111;28;20227;-78
2022/09/17 14:13:22;;;;;;;3.17;0.70;;;;;;;;;;5016613;28;22353;-79
2022/09/17 14:16:04;;;;;;;1.73;0.60;;;;;;;;;;5019354;28;20209;-79
2022/09/17 14:18:38;;;;;;;1.03;0.40;;;;;;;;;;5019899;28;20238;-79
2022/09/17 14:21:07;;;;;;;1.67;0.77;;;;;;;;;;5017909;28;20199;-78
2022/09/17 14:23:42;;;;;;;2.90;0.50;;;;;;;;;;5021641;28;20204;-78
2022/09/17 14:26:13;;;;;;;2.30;0.60;;;;;;;;;;5010140;28;20231;-78
2022/09/17 14:28:42;;;;;;;3.67;0.60;;;;;;;;;;5018261;28;20310;-78
2022/09/17 14:31:12;;;;;;;2.07;0.70;;;;;;;;;;5013429;28;20211;-79
2022/09/17 14:33:40;;;;;;;5.13;0.90;;;;;;;;;;5021886;28;20196;-79
2022/09/17 14:36:09;;;;;;;3.13;0.90;;;;;;;;;;5017112;28;20246;-79
2022/09/17 14:38:43;;;;;;;2.13;0.60;;;;;;;;;;5019398;28;20236;-79
2022/09/17 14:41:18;;;;;;;2.03;0.80;;;;;;;;;;5018000;28;20208;-79
2022/09/17 14:43:48;;;;;;;3.67;0.60;;;;;;;;;;5018317;28;20210;-79
2022/09/17 14:46:18;;;;;;;1.57;0.47;;;;;;;;;;5019434;28;20225;-79
2022/09/17 14:48:45;;;;;;;2.47;0.53;;;;;;;;;;5012647;28;20686;-78
2022/09/17 14:51:27;;;;;;;0.83;0.50;;;;;;;;;;5022173;28;20210;-79
2022/09/17 14:54:10;;;;;;;3.33;0.57;;;;;;;;;;5015442;28;20204;-80
2022/09/17 14:56:43;;;;;;;2.63;0.60;;;;;;;;;;5025241;28;20199;-80
2022/09/17 14:59:15;;;;;;;3.10;0.70;;;;;;;;;;5028821;28;20338;-78
2022/09/17 15:01:47;;;;;;;3.00;0.70;;;;;;;;;;5024436;28;20216;-78
2022/09/17 15:04:24;;;;;;;1.23;0.50;;;;;;;;;;5019403;28;20213;-80